createdAt,value
2018-05-25T00:00:21.081Z,0.00
2018-05-25T00:01:21.056Z,0.00
2018-05-25T00:02:21.032Z,0.00
2018-05-25T00:03:21.006Z,0.00
2018-05-25T00:04:20.988Z,0.00
2018-05-25T00:05:20.964Z,0.00
2018-05-25T00:06:20.942Z,0.00
2018-05-25T00:07:20.915Z,0.00
2018-05-25T00:08:20.888Z,0.00
2018-05-25T00:09:20.859Z,0.00
2018-05-25T00:10:20.847Z,0.00
2018-05-25T00:11:20.822Z,0.00
2018-05-25T00:12:20.791Z,0.00
2018-05-25T00:13:20.766Z,0.00
2018-05-25T00:14:20.750Z,0.00
2018-05-25T00:15:20.720Z,0.00
2018-05-25T00:16:20.696Z,0.00
2018-05-25T00:17:20.675Z,0.00
2018-05-25T00:18:20.696Z,0.00
2018-05-25T00:19:20.627Z,0.00
2018-05-25T00:20:20.597Z,0.00
2018-05-25T00:21:20.573Z,0.00
2018-05-25T00:22:20.553Z,0.00
2018-05-25T00:23:20.527Z,0.00
2018-05-25T00:24:20.511Z,0.00
2018-05-25T00:25:20.480Z,0.00
2018-05-25T00:26:20.459Z,0.00
2018-05-25T00:27:20.431Z,0.00
2018-05-25T00:28:20.405Z,0.00
2018-05-25T00:29:20.382Z,0.00
2018-05-25T00:30:20.366Z,0.00
2018-05-25T00:31:20.342Z,0.00
2018-05-25T00:32:20.310Z,0.00
2018-05-25T00:33:20.296Z,0.00
2018-05-25T00:34:20.263Z,0.00
2018-05-25T00:35:20.242Z,0.00
2018-05-25T00:36:20.220Z,0.00
2018-05-25T00:37:20.199Z,0.00
2018-05-25T00:38:20.169Z,0.00
2018-05-25T00:39:20.151Z,0.00
2018-05-25T00:40:20.127Z,0.00
2018-05-25T00:41:20.103Z,0.00
2018-05-25T00:42:20.072Z,0.00
2018-05-25T00:43:20.043Z,0.00
2018-05-25T00:44:20.024Z,0.00
2018-05-25T00:45:20.005Z,0.00
2018-05-25T00:46:19.977Z,0.00
2018-05-25T00:47:19.954Z,0.00
2018-05-25T00:48:19.947Z,0.00
2018-05-25T00:49:19.904Z,0.00
2018-05-25T00:50:19.893Z,0.00
2018-05-25T00:51:19.854Z,0.00
2018-05-25T00:52:19.835Z,0.00
2018-05-25T00:53:19.809Z,0.00
2018-05-25T00:54:19.793Z,0.00
2018-05-25T00:55:19.756Z,0.00
2018-05-25T00:56:19.740Z,0.00
2018-05-25T00:57:19.717Z,0.00
2018-05-25T00:58:19.693Z,0.00
2018-05-25T00:59:19.670Z,0.00
2018-05-25T01:00:19.637Z,0.00
2018-05-25T01:01:19.642Z,0.00
2018-05-25T01:02:19.596Z,0.00
2018-05-25T01:03:19.569Z,0.00
2018-05-25T01:04:19.550Z,0.00
2018-05-25T01:05:19.525Z,0.00
2018-05-25T01:06:19.502Z,0.00
2018-05-25T01:07:19.477Z,0.00
2018-05-25T01:08:19.447Z,0.00
2018-05-25T01:09:19.427Z,0.00
2018-05-25T01:10:19.421Z,0.00
2018-05-25T01:11:19.377Z,0.00
2018-05-25T01:12:19.356Z,0.00
2018-05-25T01:13:19.330Z,0.00
2018-05-25T01:14:19.312Z,0.00
2018-05-25T01:15:19.284Z,0.00
2018-05-25T01:16:19.262Z,0.00
2018-05-25T01:17:19.239Z,0.00
2018-05-25T01:18:19.214Z,0.00
2018-05-25T01:19:19.184Z,0.00
2018-05-25T01:20:19.170Z,0.00
2018-05-25T01:21:19.142Z,0.00
2018-05-25T01:22:19.122Z,0.00
2018-05-25T01:23:19.092Z,0.00
2018-05-25T01:24:19.063Z,0.00
2018-05-25T01:25:19.046Z,0.00
2018-05-25T01:26:19.019Z,0.00
2018-05-25T01:27:18.993Z,0.00
2018-05-25T01:28:18.972Z,0.00
2018-05-25T01:29:18.947Z,0.00
2018-05-25T01:30:18.925Z,0.00
2018-05-25T01:31:18.898Z,0.00
2018-05-25T01:32:18.870Z,0.00
2018-05-25T01:33:18.857Z,0.00
2018-05-25T01:34:18.822Z,0.00
2018-05-25T01:35:18.800Z,0.00
2018-05-25T01:36:18.780Z,0.00
2018-05-25T01:37:18.755Z,0.00
2018-05-25T01:38:18.734Z,0.00
2018-05-25T01:39:18.713Z,0.00
2018-05-25T01:40:18.680Z,0.00
2018-05-25T01:41:18.663Z,0.00
2018-05-25T01:42:18.636Z,0.00
2018-05-25T01:43:18.636Z,0.00
2018-05-25T01:44:18.598Z,0.00
2018-05-25T01:45:18.565Z,0.00
2018-05-25T01:46:18.534Z,0.00
2018-05-25T01:47:18.509Z,0.00
2018-05-25T01:48:18.491Z,0.00
2018-05-25T01:49:18.471Z,0.00
2018-05-25T01:50:18.446Z,0.00
2018-05-25T01:51:18.421Z,0.00
2018-05-25T01:52:18.394Z,0.00
2018-05-25T01:53:18.371Z,0.00
2018-05-25T01:54:18.350Z,0.00
2018-05-25T01:55:18.322Z,0.00
2018-05-25T01:56:18.305Z,0.00
2018-05-25T01:57:18.271Z,0.00
2018-05-25T01:58:18.250Z,0.00
2018-05-25T01:59:18.227Z,0.00
2018-05-25T02:00:18.205Z,0.00
2018-05-25T02:01:18.180Z,0.00
2018-05-25T02:02:18.158Z,0.00
2018-05-25T02:03:18.137Z,0.00
2018-05-25T02:04:18.103Z,0.00
2018-05-25T02:05:18.089Z,0.00
2018-05-25T02:06:18.055Z,0.00
2018-05-25T02:07:18.040Z,0.00
2018-05-25T02:08:18.009Z,0.00
2018-05-25T02:09:17.986Z,0.00
2018-05-25T02:10:17.968Z,0.00
2018-05-25T02:11:17.937Z,0.00
2018-05-25T02:12:17.923Z,0.00
2018-05-25T02:13:17.887Z,0.00
2018-05-25T02:14:17.862Z,0.00
2018-05-25T02:15:17.845Z,0.00
2018-05-25T02:16:17.815Z,0.00
2018-05-25T02:17:17.791Z,0.00
2018-05-25T02:18:17.776Z,0.00
2018-05-25T02:19:17.749Z,0.00
2018-05-25T02:20:17.725Z,0.00
2018-05-25T02:21:17.695Z,0.00
2018-05-25T02:22:17.682Z,0.00
2018-05-25T02:23:17.654Z,0.00
2018-05-25T02:24:17.631Z,0.00
2018-05-25T02:25:17.611Z,0.00
2018-05-25T02:26:17.575Z,0.00
2018-05-25T02:27:17.558Z,0.00
2018-05-25T02:28:17.535Z,0.00
2018-05-25T02:29:17.510Z,0.00
2018-05-25T02:30:17.491Z,0.00
2018-05-25T02:31:17.463Z,0.00
2018-05-25T02:32:17.436Z,0.00
2018-05-25T02:33:17.418Z,0.00
2018-05-25T02:34:17.384Z,0.00
2018-05-25T02:35:17.370Z,0.00
2018-05-25T02:36:17.342Z,0.00
2018-05-25T02:37:17.322Z,0.00
2018-05-25T02:38:17.301Z,0.00
2018-05-25T02:39:17.276Z,0.00
2018-05-25T02:40:17.247Z,0.00
2018-05-25T02:41:17.217Z,0.00
2018-05-25T02:42:17.203Z,0.00
2018-05-25T02:43:17.173Z,0.00
2018-05-25T02:45:17.129Z,0.00
2018-05-25T02:46:17.099Z,0.00
2018-05-25T02:47:17.083Z,0.00
2018-05-25T02:48:17.049Z,0.00
2018-05-25T02:49:17.531Z,0.00
2018-05-25T02:50:17.010Z,0.00
2018-05-25T02:51:16.984Z,0.00
2018-05-25T02:52:16.963Z,0.00
2018-05-25T02:53:16.936Z,0.00
2018-05-25T02:54:16.906Z,0.00
2018-05-25T02:55:16.881Z,4.00
2018-05-25T02:56:16.867Z,4.00
2018-05-25T02:57:16.926Z,0.00
2018-05-25T02:58:16.810Z,0.00
2018-05-25T02:59:16.788Z,4.00
2018-05-25T03:00:16.766Z,4.00
2018-05-25T03:01:16.758Z,4.00
2018-05-25T03:02:16.716Z,4.00
2018-05-25T03:03:16.695Z,4.00
2018-05-25T03:04:16.668Z,8.00
2018-05-25T03:05:16.644Z,4.00
2018-05-25T03:06:16.639Z,8.00
2018-05-25T03:07:16.594Z,8.00
2018-05-25T03:08:16.574Z,8.00
2018-05-25T03:09:16.556Z,12.00
2018-05-25T03:10:16.526Z,12.00
2018-05-25T03:11:16.506Z,12.00
2018-05-25T03:12:16.476Z,16.00
2018-05-25T03:13:16.454Z,12.00
2018-05-25T03:14:16.447Z,16.00
2018-05-25T03:15:16.404Z,16.00
2018-05-25T03:16:16.382Z,16.00
2018-05-25T03:17:16.416Z,16.00
2018-05-25T03:18:16.383Z,24.00
2018-05-25T03:19:16.364Z,24.00
2018-05-25T03:20:16.339Z,28.00
2018-05-25T03:21:16.323Z,28.00
2018-05-25T03:22:16.283Z,32.00
2018-05-25T03:23:16.228Z,32.00
2018-05-25T03:24:16.192Z,36.00
2018-05-25T03:25:16.165Z,36.00
2018-05-25T03:26:16.138Z,44.00
2018-05-25T03:27:16.116Z,44.00
2018-05-25T03:28:16.089Z,48.00
2018-05-25T03:29:16.077Z,52.00
2018-05-25T03:30:16.039Z,56.00
2018-05-25T03:31:16.024Z,56.00
2018-05-25T03:32:15.993Z,56.00
2018-05-25T03:33:15.972Z,60.00
2018-05-25T03:34:15.949Z,64.00
2018-05-25T03:35:15.935Z,68.00
2018-05-25T03:36:16.089Z,68.00
2018-05-25T03:37:15.877Z,72.00
2018-05-25T03:38:15.846Z,76.00
2018-05-25T03:39:15.831Z,80.00
2018-05-25T03:40:15.806Z,84.00
2018-05-25T03:41:15.777Z,92.00
2018-05-25T03:42:15.756Z,96.00
2018-05-25T03:43:15.733Z,104.00
2018-05-25T03:44:15.702Z,108.00
2018-05-25T03:45:15.684Z,112.00
2018-05-25T03:46:15.655Z,120.00
2018-05-25T03:47:15.634Z,128.00
2018-05-25T03:48:15.618Z,132.00
2018-05-25T03:49:15.589Z,140.00
2018-05-25T03:50:15.556Z,148.00
2018-05-25T03:51:15.542Z,156.00
2018-05-25T03:52:15.510Z,164.00
2018-05-25T03:53:15.486Z,172.00
2018-05-25T03:54:15.470Z,180.00
2018-05-25T03:55:15.442Z,188.00
2018-05-25T03:56:15.425Z,192.00
2018-05-25T03:57:15.403Z,204.00
2018-05-25T03:58:15.372Z,208.00
2018-05-25T03:59:15.347Z,208.00
2018-05-25T04:00:15.320Z,212.00
2018-05-25T04:01:15.302Z,184.00
2018-05-25T04:02:15.269Z,224.00
2018-05-25T04:03:15.260Z,228.00
2018-05-25T04:04:15.229Z,240.00
2018-05-25T04:05:15.206Z,248.00
2018-05-25T04:06:15.176Z,256.00
2018-05-25T04:07:15.158Z,256.00
2018-05-25T04:08:15.133Z,260.00
2018-05-25T04:09:15.105Z,264.00
2018-05-25T04:10:15.082Z,268.00
2018-05-25T04:11:15.059Z,268.00
2018-05-25T04:12:15.038Z,272.00
2018-05-25T04:13:15.013Z,284.00
2018-05-25T04:14:15.655Z,296.00
2018-05-25T04:15:14.960Z,308.00
2018-05-25T04:16:14.940Z,324.00
2018-05-25T04:17:14.917Z,340.00
2018-05-25T04:18:14.888Z,356.00
2018-05-25T04:19:14.867Z,376.00
2018-05-25T04:20:14.840Z,384.00
2018-05-25T04:21:14.817Z,400.00
2018-05-25T04:22:14.794Z,412.00
2018-05-25T04:23:14.775Z,428.00
2018-05-25T04:24:14.821Z,440.00
2018-05-25T04:25:14.728Z,440.00
2018-05-25T04:26:14.696Z,436.00
2018-05-25T04:27:14.793Z,428.00
2018-05-25T04:28:14.672Z,412.00
2018-05-25T04:29:14.621Z,400.00
2018-05-25T04:30:14.607Z,392.00
2018-05-25T04:31:14.580Z,392.00
2018-05-25T04:32:14.553Z,396.00
2018-05-25T04:33:14.540Z,400.00
2018-05-25T04:34:14.502Z,408.00
2018-05-25T04:35:14.482Z,416.00
2018-05-25T04:36:14.460Z,428.00
2018-05-25T04:37:14.437Z,444.00
2018-05-25T04:38:14.410Z,464.00
2018-05-25T04:39:14.390Z,480.00
2018-05-25T04:40:14.379Z,496.00
2018-05-25T04:41:14.336Z,520.00
2018-05-25T04:42:14.320Z,540.00
2018-05-25T04:43:14.295Z,564.00
2018-05-25T04:44:14.270Z,592.00
2018-05-25T04:45:14.247Z,616.00
2018-05-25T04:46:14.217Z,648.00
2018-05-25T04:47:14.200Z,688.00
2018-05-25T04:48:14.169Z,736.00
2018-05-25T04:49:14.145Z,788.00
2018-05-25T04:50:14.124Z,844.00
2018-05-25T04:51:14.097Z,892.00
2018-05-25T04:52:14.077Z,936.00
2018-05-25T04:53:14.052Z,964.00
2018-05-25T04:54:14.025Z,984.00
2018-05-25T04:55:14.011Z,1000.00
2018-05-25T04:56:13.977Z,1024.00
2018-05-25T04:57:13.954Z,1048.00
2018-05-25T04:58:13.947Z,1092.00
2018-05-25T04:59:13.988Z,1152.00
2018-05-25T05:00:13.888Z,1208.00
2018-05-25T05:01:13.860Z,1256.00
2018-05-25T05:02:13.836Z,1296.00
2018-05-25T05:03:13.821Z,1340.00
2018-05-25T05:04:13.790Z,1388.00
2018-05-25T05:05:13.772Z,1440.00
2018-05-25T05:06:13.740Z,1496.00
2018-05-25T05:07:13.711Z,1536.00
2018-05-25T05:08:13.709Z,1576.00
2018-05-25T05:09:13.667Z,1628.00
2018-05-25T05:10:13.641Z,1664.00
2018-05-25T05:11:13.625Z,1676.00
2018-05-25T05:12:13.600Z,1672.00
2018-05-25T05:13:13.570Z,1660.00
2018-05-25T05:14:13.582Z,1668.00
2018-05-25T05:15:13.524Z,1668.00
2018-05-25T05:16:13.506Z,1692.00
2018-05-25T05:17:13.479Z,1716.00
2018-05-25T05:18:13.453Z,1728.00
2018-05-25T05:19:13.427Z,1716.00
2018-05-25T05:20:13.412Z,1700.00
2018-05-25T05:21:13.382Z,1676.00
2018-05-25T05:22:13.361Z,1644.00
2018-05-25T05:23:13.340Z,1620.00
2018-05-25T05:24:13.309Z,1604.00
2018-05-25T05:25:13.291Z,1588.00
2018-05-25T05:26:13.269Z,1572.00
2018-05-25T05:27:13.242Z,1560.00
2018-05-25T05:28:13.223Z,1552.00
2018-05-25T05:29:13.199Z,1552.00
2018-05-25T05:30:13.169Z,1552.00
2018-05-25T05:31:13.145Z,1560.00
2018-05-25T05:32:13.124Z,1564.00
2018-05-25T05:33:13.104Z,1576.00
2018-05-25T05:34:13.070Z,1588.00
2018-05-25T05:35:13.055Z,1584.00
2018-05-25T05:36:13.034Z,1580.00
2018-05-25T05:37:13.000Z,1548.00
2018-05-25T05:38:12.984Z,1504.00
2018-05-25T05:39:12.993Z,1444.00
2018-05-25T05:40:12.939Z,1384.00
2018-05-25T05:41:12.908Z,1336.00
2018-05-25T05:42:12.883Z,1300.00
2018-05-25T05:43:12.865Z,1280.00
2018-05-25T05:44:12.834Z,1268.00
2018-05-25T05:45:12.811Z,1264.00
2018-05-25T05:46:12.799Z,1276.00
2018-05-25T05:47:12.768Z,1300.00
2018-05-25T05:48:12.748Z,1344.00
2018-05-25T05:49:12.714Z,1384.00
2018-05-25T05:50:12.699Z,1428.00
2018-05-25T05:51:12.668Z,1472.00
2018-05-25T05:52:12.651Z,1508.00
2018-05-25T05:53:12.630Z,1524.00
2018-05-25T05:54:12.596Z,1524.00
2018-05-25T05:55:12.582Z,1532.00
2018-05-25T05:56:12.550Z,1544.00
2018-05-25T05:57:12.526Z,1560.00
2018-05-25T05:58:12.513Z,1584.00
2018-05-25T05:59:12.484Z,1616.00
2018-05-25T06:00:12.457Z,1640.00
2018-05-25T06:01:12.460Z,1664.00
2018-05-25T06:02:12.428Z,1692.00
2018-05-25T06:03:12.453Z,1736.00
2018-05-25T06:04:12.367Z,1772.00
2018-05-25T06:05:12.366Z,1808.00
2018-05-25T06:06:12.320Z,1840.00
2018-05-25T06:07:12.298Z,1840.00
2018-05-25T06:08:12.272Z,1836.00
2018-05-25T06:09:12.252Z,1824.00
2018-05-25T06:10:12.218Z,1824.00
2018-05-25T06:11:12.201Z,1848.00
2018-05-25T06:12:12.175Z,1892.00
2018-05-25T06:13:12.150Z,1940.00
2018-05-25T06:14:12.130Z,1956.00
2018-05-25T06:15:12.109Z,1948.00
2018-05-25T06:16:12.086Z,1916.00
2018-05-25T06:17:12.059Z,1864.00
2018-05-25T06:18:12.038Z,1820.00
2018-05-25T06:19:12.006Z,1772.00
2018-05-25T06:20:11.993Z,1732.00
2018-05-25T06:21:11.960Z,1692.00
2018-05-25T06:22:11.942Z,1664.00
2018-05-25T06:23:11.917Z,1640.00
2018-05-25T06:24:11.891Z,1632.00
2018-05-25T06:25:11.873Z,1652.00
2018-05-25T06:26:11.841Z,1676.00
2018-05-25T06:27:11.819Z,1692.00
2018-05-25T06:28:11.798Z,1704.00
2018-05-25T06:29:11.779Z,1696.00
2018-05-25T06:30:11.754Z,1684.00
2018-05-25T06:31:11.729Z,1692.00
2018-05-25T06:32:11.708Z,1720.00
2018-05-25T06:33:11.688Z,1748.00
2018-05-25T06:34:11.652Z,1792.00
2018-05-25T06:35:11.629Z,1864.00
2018-05-25T06:36:11.612Z,1908.00
2018-05-25T06:37:11.590Z,1940.00
2018-05-25T06:38:11.572Z,1948.00
2018-05-25T06:39:11.544Z,1944.00
2018-05-25T06:40:11.531Z,1940.00
2018-05-25T06:41:11.489Z,1948.00
2018-05-25T06:42:11.472Z,1960.00
2018-05-25T06:43:11.441Z,1976.00
2018-05-25T06:44:11.435Z,2016.00
2018-05-25T06:45:11.405Z,2060.00
2018-05-25T06:46:11.369Z,2108.00
2018-05-25T06:47:11.356Z,2136.00
2018-05-25T06:48:11.323Z,2164.00
2018-05-25T06:49:11.303Z,2196.00
2018-05-25T06:50:11.294Z,2220.00
2018-05-25T06:51:11.253Z,2248.00
2018-05-25T06:52:11.240Z,2288.00
2018-05-25T06:53:11.207Z,2336.00
2018-05-25T06:54:11.191Z,2380.00
2018-05-25T06:55:11.160Z,2412.00
2018-05-25T06:56:11.143Z,2412.00
2018-05-25T06:57:11.166Z,2380.00
2018-05-25T06:58:11.089Z,2312.00
2018-05-25T06:59:11.076Z,2228.00
2018-05-25T07:00:11.064Z,2172.00
2018-05-25T07:01:11.023Z,2156.00
2018-05-25T07:02:11.006Z,2152.00
2018-05-25T07:03:10.980Z,2172.00
2018-05-25T07:04:10.954Z,2204.00
2018-05-25T07:05:10.940Z,2248.00
2018-05-25T07:06:10.907Z,2288.00
2018-05-25T07:07:10.885Z,2320.00
2018-05-25T07:08:10.868Z,2348.00
2018-05-25T07:09:10.851Z,2344.00
2018-05-25T07:10:10.820Z,2328.00
2018-05-25T07:11:10.796Z,2320.00
2018-05-25T07:12:10.765Z,2332.00
2018-05-25T07:13:10.747Z,2368.00
2018-05-25T07:14:10.720Z,2372.00
2018-05-25T07:15:11.224Z,2412.00
2018-05-25T07:16:10.688Z,2472.00
2018-05-25T07:17:10.659Z,2568.00
2018-05-25T07:18:10.633Z,2680.00
2018-05-25T07:19:10.607Z,2788.00
2018-05-25T07:20:10.582Z,2844.00
2018-05-25T07:21:10.563Z,2852.00
2018-05-25T07:22:10.551Z,2808.00
2018-05-25T07:23:10.514Z,2776.00
2018-05-25T07:24:10.487Z,2728.00
2018-05-25T07:25:10.463Z,2708.00
2018-05-25T07:26:10.449Z,2720.00
2018-05-25T07:27:10.422Z,2752.00
2018-05-25T07:28:10.398Z,2728.00
2018-05-25T07:29:10.380Z,2664.00
2018-05-25T07:30:10.353Z,2576.00
2018-05-25T07:31:10.332Z,2492.00
2018-05-25T07:32:10.309Z,2464.00
2018-05-25T07:33:10.286Z,2488.00
2018-05-25T07:34:10.259Z,2544.00
2018-05-25T07:35:10.248Z,2564.00
2018-05-25T07:36:10.212Z,2572.00
2018-05-25T07:37:10.189Z,2532.00
2018-05-25T07:38:10.170Z,2552.00
2018-05-25T07:39:10.148Z,2628.00
2018-05-25T07:40:10.130Z,2740.00
2018-05-25T07:41:10.097Z,2896.00
2018-05-25T07:42:10.076Z,3032.00
2018-05-25T07:43:10.067Z,3128.00
2018-05-25T07:44:10.047Z,3172.00
2018-05-25T07:45:10.010Z,3204.00
2018-05-25T07:46:09.982Z,3216.00
2018-05-25T07:47:09.956Z,3220.00
2018-05-25T07:48:09.945Z,3192.00
2018-05-25T07:49:09.926Z,3184.00
2018-05-25T07:50:09.898Z,3224.00
2018-05-25T07:51:09.874Z,3364.00
2018-05-25T07:52:09.843Z,3536.00
2018-05-25T07:53:09.824Z,3688.00
2018-05-25T07:54:09.806Z,3856.00
2018-05-25T07:55:09.773Z,4012.00
2018-05-25T07:56:09.777Z,4176.00
2018-05-25T07:57:09.853Z,4312.00
2018-05-25T07:58:09.721Z,4440.00
2018-05-25T07:59:09.767Z,4624.00
2018-05-25T08:00:09.693Z,4844.00
2018-05-25T08:01:09.703Z,5192.00
2018-05-25T08:02:09.672Z,5508.00
2018-05-25T08:03:09.639Z,5776.00
2018-05-25T08:04:09.576Z,6000.00
2018-05-25T08:05:09.562Z,6104.00
2018-05-25T08:06:09.576Z,6076.00
2018-05-25T08:07:09.592Z,5960.00
2018-05-25T08:08:09.497Z,5864.00
2018-05-25T08:09:09.466Z,5880.00
2018-05-25T08:10:10.193Z,5928.00
2018-05-25T08:11:09.441Z,6004.00
2018-05-25T08:12:09.393Z,6056.00
2018-05-25T08:13:09.376Z,6092.00
2018-05-25T08:14:09.347Z,6156.00
2018-05-25T08:15:09.331Z,6136.00
2018-05-25T08:16:09.305Z,6176.00
2018-05-25T08:17:09.305Z,6188.00
2018-05-25T08:18:09.258Z,6172.00
2018-05-25T08:19:09.243Z,6096.00
2018-05-25T08:20:09.214Z,6036.00
2018-05-25T08:21:09.203Z,6028.00
2018-05-25T08:22:09.169Z,5936.00
2018-05-25T08:23:09.149Z,5828.00
2018-05-25T08:24:09.126Z,5660.00
2018-05-25T08:25:09.109Z,5548.00
2018-05-25T08:26:09.088Z,5540.00
2018-05-25T08:27:09.063Z,5648.00
2018-05-25T08:28:09.039Z,5736.00
2018-05-25T08:29:09.011Z,5808.00
2018-05-25T08:30:08.999Z,5856.00
2018-05-25T08:31:08.971Z,6004.00
2018-05-25T08:32:08.959Z,6196.00
2018-05-25T08:33:09.024Z,6428.00
2018-05-25T08:34:08.906Z,6624.00
2018-05-25T08:35:08.882Z,6732.00
2018-05-25T08:36:08.863Z,6752.00
2018-05-25T08:37:08.835Z,6784.00
2018-05-25T08:38:12.755Z,6904.00
2018-05-25T08:39:08.799Z,6880.00
2018-05-25T08:40:08.774Z,6864.00
2018-05-25T08:41:08.756Z,6800.00
2018-05-25T08:42:08.731Z,6512.00
2018-05-25T08:43:08.706Z,6272.00
2018-05-25T08:44:08.688Z,6108.00
2018-05-25T08:45:08.672Z,6060.00
2018-05-25T08:46:08.639Z,6124.00
2018-05-25T08:47:08.635Z,6264.00
2018-05-25T08:48:08.596Z,6300.00
2018-05-25T08:49:08.623Z,6152.00
2018-05-25T08:50:08.554Z,5988.00
2018-05-25T08:51:08.531Z,5956.00
2018-05-25T08:52:08.518Z,6020.00
2018-05-25T08:53:08.490Z,6068.00
2018-05-25T08:54:08.471Z,6120.00
2018-05-25T08:55:08.461Z,6064.00
2018-05-25T08:56:08.431Z,6016.00
2018-05-25T08:57:08.407Z,6080.00
2018-05-25T08:58:08.390Z,6312.00
2018-05-25T08:59:08.366Z,6444.00
2018-05-25T09:00:08.348Z,6488.00
2018-05-25T09:01:08.323Z,6540.00
2018-05-25T09:02:08.294Z,6592.00
2018-05-25T09:03:08.283Z,6724.00
2018-05-25T09:04:08.313Z,6804.00
2018-05-25T09:05:08.234Z,6708.00
2018-05-25T09:06:08.212Z,6460.00
2018-05-25T09:07:08.189Z,6360.00
2018-05-25T09:08:08.165Z,6412.00
2018-05-25T09:09:08.144Z,6512.00
2018-05-25T09:10:08.126Z,6532.00
2018-05-25T09:11:08.111Z,6644.00
2018-05-25T09:12:08.081Z,6824.00
2018-05-25T09:13:08.062Z,6944.00
2018-05-25T09:14:08.037Z,6876.00
2018-05-25T09:15:08.011Z,6784.00
2018-05-25T09:16:07.999Z,6756.00
2018-05-25T09:17:07.979Z,6724.00
2018-05-25T09:18:07.956Z,6680.00
2018-05-25T09:19:07.929Z,6656.00
2018-05-25T09:20:07.912Z,6596.00
2018-05-25T09:21:07.891Z,6524.00
2018-05-25T09:22:07.866Z,6472.00
2018-05-25T09:23:07.851Z,6492.00
2018-05-25T09:24:07.820Z,6556.00
2018-05-25T09:25:07.803Z,6580.00
2018-05-25T09:26:07.780Z,6616.00
2018-05-25T09:27:07.760Z,6664.00
2018-05-25T09:28:07.743Z,6680.00
2018-05-25T09:29:07.724Z,6620.00
2018-05-25T09:30:07.697Z,6560.00
2018-05-25T09:31:07.678Z,6612.00
2018-05-25T09:32:07.653Z,6600.00
2018-05-25T09:33:07.635Z,6580.00
2018-05-25T09:34:07.606Z,6644.00
2018-05-25T09:35:07.587Z,6852.00
2018-05-25T09:36:07.570Z,7120.00
2018-05-25T09:37:07.548Z,7232.00
2018-05-25T09:38:07.525Z,7264.00
2018-05-25T09:39:07.508Z,7128.00
2018-05-25T09:40:07.486Z,6780.00
2018-05-25T09:41:07.463Z,6464.00
2018-05-25T09:42:07.441Z,6124.00
2018-05-25T09:43:07.427Z,5948.00
2018-05-25T09:44:07.400Z,5664.00
2018-05-25T09:45:07.372Z,5572.00
2018-05-25T09:46:07.359Z,5744.00
2018-05-25T09:47:07.339Z,6212.00
2018-05-25T09:48:07.337Z,6520.00
2018-05-25T09:49:07.306Z,6732.00
2018-05-25T09:50:07.267Z,6788.00
2018-05-25T09:51:07.247Z,7000.00
2018-05-25T09:52:07.240Z,7128.00
2018-05-25T09:53:07.211Z,7060.00
2018-05-25T09:54:07.181Z,6988.00
2018-05-25T09:55:07.167Z,6948.00
2018-05-25T09:56:07.161Z,6772.00
2018-05-25T09:57:07.117Z,6744.00
2018-05-25T09:58:07.104Z,6696.00
2018-05-25T09:59:07.076Z,6736.00
2018-05-25T10:00:07.068Z,6912.00
2018-05-25T10:01:07.041Z,6760.00
2018-05-25T10:02:07.013Z,6500.00
2018-05-25T10:03:07.021Z,6208.00
2018-05-25T10:04:07.003Z,5868.00
2018-05-25T10:05:06.953Z,5592.00
2018-05-25T10:06:06.933Z,5300.00
2018-05-25T10:07:06.913Z,5296.00
2018-05-25T10:08:06.889Z,5460.00
2018-05-25T10:09:06.873Z,5536.00
2018-05-25T10:10:06.845Z,5560.00
2018-05-25T10:11:06.828Z,5712.00
2018-05-25T10:12:06.801Z,6124.00
2018-05-25T10:13:06.789Z,6416.00
2018-05-25T10:14:06.765Z,6572.00
2018-05-25T10:15:06.741Z,6528.00
2018-05-25T10:16:06.722Z,6544.00
2018-05-25T10:17:06.696Z,6540.00
2018-05-25T10:18:06.682Z,6428.00
2018-05-25T10:19:06.657Z,6352.00
2018-05-25T10:20:06.635Z,6644.00
2018-05-25T10:21:06.622Z,7044.00
2018-05-25T10:22:06.592Z,7412.00
2018-05-25T10:23:06.569Z,7348.00
2018-05-25T10:24:06.556Z,7204.00
2018-05-25T10:25:06.530Z,6944.00
2018-05-25T10:26:06.513Z,6892.00
2018-05-25T10:27:06.494Z,7184.00
2018-05-25T10:28:06.463Z,7264.00
2018-05-25T10:29:06.440Z,7068.00
2018-05-25T10:30:06.424Z,7016.00
2018-05-25T10:31:06.403Z,7188.00
2018-05-25T10:32:06.382Z,7496.00
2018-05-25T10:33:06.370Z,7760.00
2018-05-25T10:34:06.340Z,7556.00
2018-05-25T10:35:06.352Z,7716.00
2018-05-25T10:36:06.307Z,7428.00
2018-05-25T10:37:06.292Z,7504.00
2018-05-25T10:38:06.260Z,7268.00
2018-05-25T10:39:06.249Z,7184.00
2018-05-25T10:40:06.220Z,7104.00
2018-05-25T10:41:06.221Z,7052.00
2018-05-25T10:42:06.174Z,6904.00
2018-05-25T10:43:06.172Z,6756.00
2018-05-25T10:44:06.133Z,6480.00
2018-05-25T10:45:06.111Z,6032.00
2018-05-25T10:46:06.088Z,5876.00
2018-05-25T10:47:06.068Z,6004.00
2018-05-25T10:48:06.043Z,6284.00
2018-05-25T10:49:06.030Z,6932.00
2018-05-25T10:50:06.006Z,7108.00
2018-05-25T10:51:05.984Z,7584.00
2018-05-25T10:52:05.975Z,8448.00
2018-05-25T10:53:05.940Z,8772.00
2018-05-25T10:54:05.926Z,8788.00
2018-05-25T10:55:05.897Z,8204.00
2018-05-25T10:56:05.885Z,7696.00
2018-05-25T10:57:05.865Z,7204.00
2018-05-25T10:58:05.847Z,7100.00
2018-05-25T10:59:05.823Z,7452.00
2018-05-25T11:00:05.791Z,7380.00
2018-05-25T11:01:05.788Z,6408.00
2018-05-25T11:02:05.764Z,6012.00
2018-05-25T11:03:05.732Z,6024.00
2018-05-25T11:04:05.717Z,6108.00
2018-05-25T11:05:05.711Z,6424.00
2018-05-25T11:06:05.678Z,7020.00
2018-05-25T11:07:05.656Z,7656.00
2018-05-25T11:08:05.631Z,7804.00
2018-05-25T11:09:05.609Z,7312.00
2018-05-25T11:10:05.613Z,6944.00
2018-05-25T11:11:05.575Z,7208.00
2018-05-25T11:12:05.550Z,7220.00
2018-05-25T11:13:05.523Z,7000.00
2018-05-25T11:14:05.512Z,6756.00
2018-05-25T11:15:05.483Z,6592.00
2018-05-25T11:16:05.471Z,6228.00
2018-05-25T11:17:05.448Z,6368.00
2018-05-25T11:18:05.425Z,6240.00
2018-05-25T11:19:05.415Z,6448.00
2018-05-25T11:20:05.403Z,6808.00
2018-05-25T11:21:05.357Z,7444.00
2018-05-25T11:22:05.345Z,7764.00
2018-05-25T11:23:05.321Z,7204.00
2018-05-25T11:24:05.303Z,6524.00
2018-05-25T11:25:05.278Z,6308.00
2018-05-25T11:26:05.254Z,6424.00
2018-05-25T11:27:05.256Z,6952.00
2018-05-25T11:28:05.215Z,7276.00
2018-05-25T11:29:05.197Z,7660.00
2018-05-25T11:30:05.167Z,7824.00
2018-05-25T11:31:05.150Z,7808.00
2018-05-25T11:32:05.133Z,7616.00
2018-05-25T11:33:05.104Z,7468.00
2018-05-25T11:34:05.101Z,7300.00
2018-05-25T11:35:05.063Z,7136.00
2018-05-25T11:36:05.047Z,7100.00
2018-05-25T11:37:05.028Z,6956.00
2018-05-25T11:38:05.000Z,6756.00
2018-05-25T11:39:04.984Z,6580.00
2018-05-25T11:40:04.966Z,6476.00
2018-05-25T11:41:04.946Z,6564.00
2018-05-25T11:42:04.924Z,6652.00
2018-05-25T11:43:04.897Z,6620.00
2018-05-25T11:44:04.882Z,6604.00
2018-05-25T11:45:04.861Z,6616.00
2018-05-25T11:46:04.844Z,6480.00
2018-05-25T11:47:04.816Z,6488.00
2018-05-25T11:48:04.797Z,6460.00
2018-05-25T11:49:04.775Z,6516.00
2018-05-25T11:50:04.755Z,6504.00
2018-05-25T11:51:04.737Z,6572.00
2018-05-25T11:52:04.712Z,6572.00
2018-05-25T11:53:04.712Z,6912.00
2018-05-25T11:54:04.666Z,6704.00
2018-05-25T11:55:04.650Z,6612.00
2018-05-25T11:56:04.631Z,6420.00
2018-05-25T11:57:04.607Z,6472.00
2018-05-25T11:58:04.588Z,6476.00
2018-05-25T11:59:04.558Z,6412.00
2018-05-25T12:00:04.547Z,6376.00
2018-05-25T12:01:04.538Z,6364.00
2018-05-25T12:02:04.497Z,6404.00
2018-05-25T12:03:04.484Z,6236.00
2018-05-25T12:04:04.460Z,6416.00
2018-05-25T12:05:04.437Z,6476.00
2018-05-25T12:06:04.420Z,6604.00
2018-05-25T12:07:04.395Z,6756.00
2018-05-25T12:08:04.372Z,6796.00
2018-05-25T12:09:04.351Z,6832.00
2018-05-25T12:10:04.338Z,6776.00
2018-05-25T12:11:04.311Z,6808.00
2018-05-25T12:12:04.291Z,6820.00
2018-05-25T12:13:04.273Z,6784.00
2018-05-25T12:14:04.250Z,6816.00
2018-05-25T12:15:04.236Z,6812.00
2018-05-25T12:16:04.202Z,6792.00
2018-05-25T12:17:04.182Z,6736.00
2018-05-25T12:18:04.169Z,6700.00
2018-05-25T12:19:04.141Z,6732.00
2018-05-25T12:20:04.126Z,6820.00
2018-05-25T12:21:04.100Z,7156.00
2018-05-25T12:22:04.075Z,7176.00
2018-05-25T12:23:04.065Z,7016.00
2018-05-25T12:24:04.035Z,7172.00
2018-05-25T12:25:04.023Z,7892.00
2018-05-25T12:26:03.993Z,8240.00
2018-05-25T12:27:03.977Z,7952.00
2018-05-25T12:28:03.974Z,7972.00